Airfield :
LOGIN :

Register | Disclaimer

   EN    FR    IT 

 










Legend :    VFR   Marginal VFR   IFR   Intensive IFR   Very Intensive IFR
Visi :
Ceiling :
>= 8 km
>= 3000ft
5 to 8 km
1000 to 3000 ft
1500m to 5 km
500 to 1000 ft
800 to 1500m
200 to 500 ft
< 800m
< 200 ft
Symbols :   Thunderstorms  Fog  Heavy snow  Heavy precipitations  Wind > 20 kt
SIGMETs :     Misc.  Thunderstorms  Icing  Turbulence  Mountain Waves  Volcanic Ashes







- Airport Elevation : 194 ft


EBCV - Chièvres

CURRENT METAR :
  • 161855Z AUTO 34007KT 9999 NCD 22/16 Q1014 BLU

EXPIRED METARs :
  • 161825Z AUTO 33009KT 9999 FEW061/// 23/15 Q1014 BLU
  • 161755Z AUTO 34011KT 9999 BKN056/// 23/16 Q1014 BLU
  • 161725Z AUTO 33008KT 9999 BKN059/// 26/15 Q1014 BLU
  • 161655Z AUTO 29006KT 9999 FEW059/// 26/14 Q1014 BLU
  • 161625Z AUTO 31006KT 9999 NCD 26/14 Q1014 BLU

TAF TAF EBCV
Valid from the 16 at 19:00 until the 17 at 07:00 UTC


161541Z 1619/1707 31008KT 9999 SCT050
BECMG 1620/1622 SCT015 BKN040
TEMPO 1621/1703 6000 -RA -SHRA SCT010 BKN030
TEMPO 1621/1703 4000 RA SHRA SCT008 BKN015
PROB30
TEMPO 1621/1701 31015G25KT 2000 TSRA SCT005 BKN012CB
No reported NOTAMs for that airfield.



MET'MAP, your aeronautical weather chart ! - Copyright ORBIFLY December 2007 - Disclaimer

ORBIFLY MET'MAP TEAM :

Programming & Development : Alexandra Zaïnal
Concept & Development : Baudouin d'Aumeries
Co-Development & Prog : Marc-Olivier Méhu
Technical & hardware support : Manuel Goepfert

Contact : metmap@orbifly.com




SOURCES & CREDITS :

   NOAA